Quinsam — VY6800 — position and weather

sailwx.info

Track history (hours):
 
Tides and Currents Weather Stations Pressure Air Temp Water Temp Dewpoint Dewpoint Depression Visibility Wind Speed Wind Dir Waves Ship Positions

Quinsam

Last reported at 2018-May-23 01:56 UTC. Time now 2018-May-25 18:34 UTC.
Position N 49°11' W 123°52'.

Length 90 m.

Type: Passenger vessel. MMSI: 316001266.

Date/timePositionNaut miles runAvg speedWind from/ knotsBaromVisibWave heightAir tempDewpointWater temp
2018-May-23 01:56N 49°11' W 123°52'1 0.1
2018-May-22 02:22N 49°10' W 123°54'1 2.3
2018-May-22 02:00N 49°10' W 123°56'2 2.6
2018-May-22 01:22N 49°10' W 123°53'2 4.6
2018-May-22 00:59N 49°10' W 123°56'2 3.4
2018-May-22 00:16N 49°11' W 123°52'2 8.7
2018-May-21 23:59N 49°10' W 123°56'2 0.9
2018-May-21 22:21N 49°10' W 123°54'1 1.5
2018-May-21 21:49N 49°11' W 123°53'2 3.3
2018-May-21 21:14N 49°10' W 123°55'2 3.3
2018-May-21 20:33N 49°11' W 123°52'111.4
2018-May-21 20:29N 49°10' W 123°53'2 3.3
2018-May-21 20:00N 49°10' W 123°56'1 1.4
2018-May-21 19:09N 49°10' W 123°54'1 2.6
2018-May-21 18:41N 49°10' W 123°56'2 3.2
2018-May-21 17:56N 49°11' W 123°52'2 4.2
2018-May-21 17:23N 49°10' W 123°56'2 3.8
2018-May-21 16:44N 49°11' W 123°52'2 9.8
2018-May-21 16:30N 49°10' W 123°56'1 2.8
2018-May-21 15:58N 49°10' W 123°53'1 1.6
2018-May-21 15:26N 49°11' W 123°52'2 4.2
2018-May-21 14:52N 49°10' W 123°56'3 3.9
2018-May-21 14:14N 49°11' W 123°52'210.2
2018-May-21 14:00N 49°10' W 123°55'0 0.5
2018-May-21 13:29N 49°10' W 123°55'  
2018-May-16 03:59N 49°10' W 123°56'0 0.0
2018-May-16 02:35N 49°10' W 123°56'0 0.0
2018-May-15 17:37N 49°10' W 123°56'1 6.2
2018-May-15 17:31N 49°10' W 123°55'2 3.1
2018-May-15 16:52N 49°11' W 123°52'3 7.1
2018-May-15 16:29N 49°10' W 123°56'2 4.3
2018-May-15 16:00N 49°11' W 123°53'0 0.5
2018-May-15 15:31N 49°11' W 123°53'  
Track history (hours):
 
Tides and Currents Weather Stations Pressure Air Temp Water Temp Dewpoint Dewpoint Depression Visibility Wind Speed Wind Dir Waves Ship Positions

Quinsam

Last reported at 2018-May-23 01:56 UTC. Time now 2018-May-25 18:34 UTC.
Position N 49°11' W 123°52'.

Length 90 m.

Type: Passenger vessel. MMSI: 316001266.

Date/timePositionNaut miles runAvg speedWind from/ knotsBaromVisibWave heightAir tempDewpointWater temp
2018-May-23 01:56N 49°11' W 123°52'1 0.1
2018-May-22 02:22N 49°10' W 123°54'1 2.3
2018-May-22 02:00N 49°10' W 123°56'2 2.6
2018-May-22 01:22N 49°10' W 123°53'2 4.6
2018-May-22 00:59N 49°10' W 123°56'2 3.4
2018-May-22 00:16N 49°11' W 123°52'2 8.7
2018-May-21 23:59N 49°10' W 123°56'2 0.9
2018-May-21 22:21N 49°10' W 123°54'1 1.5
2018-May-21 21:49N 49°11' W 123°53'2 3.3
2018-May-21 21:14N 49°10' W 123°55'2 3.3
2018-May-21 20:33N 49°11' W 123°52'111.4
2018-May-21 20:29N 49°10' W 123°53'2 3.3
2018-May-21 20:00N 49°10' W 123°56'1 1.4
2018-May-21 19:09N 49°10' W 123°54'1 2.6
2018-May-21 18:41N 49°10' W 123°56'2 3.2
2018-May-21 17:56N 49°11' W 123°52'2 4.2
2018-May-21 17:23N 49°10' W 123°56'2 3.8
2018-May-21 16:44N 49°11' W 123°52'2 9.8
2018-May-21 16:30N 49°10' W 123°56'1 2.8
2018-May-21 15:58N 49°10' W 123°53'1 1.6
2018-May-21 15:26N 49°11' W 123°52'2 4.2
2018-May-21 14:52N 49°10' W 123°56'3 3.9
2018-May-21 14:14N 49°11' W 123°52'210.2
2018-May-21 14:00N 49°10' W 123°55'0 0.5
2018-May-21 13:29N 49°10' W 123°55'  
2018-May-16 03:59N 49°10' W 123°56'0 0.0
2018-May-16 02:35N 49°10' W 123°56'0 0.0
2018-May-15 17:37N 49°10' W 123°56'1 6.2
2018-May-15 17:31N 49°10' W 123°55'2 3.1
2018-May-15 16:52N 49°11' W 123°52'3 7.1
2018-May-15 16:29N 49°10' W 123°56'2 4.3
2018-May-15 16:00N 49°11' W 123°53'0 0.5
2018-May-15 15:31N 49°11' W 123°53'  

Dump ship's entire track history